Time;durP1;ratioP1;P1;durP2;ratioP2;P2;SDS_P1;SDS_P2;PMS_P1;PMS_P2;Temp;Humidity;BMP_temperature;BMP_pressure;BME280_temperature;BME280_humidity;BME280_pressure;Samples;Min_cycle;Max_cycle;Signal;HPM_P1;HPM_P2
2021/09/01 00:01:38;;;;;;;32.50;29.83;;;13.30;99.90;;;;;;4895833;29;20462;-72
2021/09/01 00:04:06;;;;;;;35.80;32.90;;;13.20;99.90;;;;;;4895929;29;20470;-72
2021/09/01 00:06:33;;;;;;;34.87;32.07;;;13.20;99.90;;;;;;4895792;29;20470;-73
2021/09/01 00:09:00;;;;;;;36.50;33.20;;;13.20;99.90;;;;;;4895932;29;20557;-72
2021/09/01 00:11:26;;;;;;;33.83;30.73;;;13.10;99.90;;;;;;4895959;29;20462;-72
2021/09/01 00:13:53;;;;;;;33.67;30.80;;;13.20;99.90;;;;;;4895840;29;20474;-72
2021/09/01 00:16:30;;;;;;;34.00;31.10;;;13.10;99.90;;;;;;4895757;29;20833;-72
2021/09/01 00:18:59;;;;;;;31.17;28.87;;;13.10;99.90;;;;;;4896055;29;20556;-72
2021/09/01 00:21:27;;;;;;;33.83;31.13;;;13.20;99.90;;;;;;4895610;29;20474;-72
2021/09/01 00:23:54;;;;;;;31.67;29.17;;;13.10;99.90;;;;;;4895765;29;20455;-72
2021/09/01 00:26:22;;;;;;;34.03;30.63;;;13.10;99.90;;;;;;4895539;29;20467;-72
2021/09/01 00:28:48;;;;;;;34.93;31.73;;;13.10;99.90;;;;;;4895680;29;20490;-71
2021/09/01 00:31:18;;;;;;;33.47;31.00;;;13.10;99.90;;;;;;4895414;29;20466;-71
2021/09/01 00:33:45;;;;;;;33.27;30.50;;;13.10;99.90;;;;;;4895415;29;20459;-71
2021/09/01 00:36:11;;;;;;;34.50;31.60;;;13.00;99.90;;;;;;4895897;29;20451;-71
2021/09/01 00:38:39;;;;;;;36.10;33.00;;;13.00;99.90;;;;;;4895557;29;20495;-72
2021/09/01 00:41:16;;;;;;;37.53;34.10;;;13.00;99.90;;;;;;4895434;29;20456;-71
2021/09/01 00:43:43;;;;;;;37.27;34.17;;;12.90;99.90;;;;;;4895177;29;20463;-72
2021/09/01 00:46:10;;;;;;;37.20;34.07;;;13.00;99.90;;;;;;4895508;29;20474;-72
2021/09/01 00:48:36;;;;;;;35.60;32.70;;;13.00;99.90;;;;;;4895138;29;20844;-71
2021/09/01 00:51:03;;;;;;;36.90;33.73;;;12.90;99.90;;;;;;4895354;29;20463;-72
2021/09/01 00:53:30;;;;;;;36.50;33.23;;;12.90;99.90;;;;;;4895511;29;20459;-71
2021/09/01 00:55:59;;;;;;;36.97;33.90;;;12.90;99.90;;;;;;4895289;29;20470;-70
2021/09/01 00:58:26;;;;;;;36.43;33.53;;;12.90;99.90;;;;;;4895298;29;20862;-71
2021/09/01 01:01:12;;;;;;;36.97;33.70;;;12.90;99.90;;;;;;4895553;29;20454;-71
2021/09/01 01:03:39;;;;;;;37.03;33.87;;;12.90;99.90;;;;;;4895488;29;20486;-71
2021/09/01 01:06:05;;;;;;;35.67;32.67;;;12.90;99.90;;;;;;4895097;29;20463;-73
2021/09/01 01:08:32;;;;;;;34.47;31.47;;;12.90;99.90;;;;;;4895218;29;21155;-72
2021/09/01 01:11:01;;;;;;;35.53;32.43;;;12.90;99.90;;;;;;4895291;29;20469;-73
2021/09/01 01:13:27;;;;;;;37.10;34.00;;;12.90;99.90;;;;;;4895316;29;20454;-73
2021/09/01 01:15:55;;;;;;;38.93;35.07;;;12.90;99.90;;;;;;4895514;29;20455;-73
2021/09/01 01:18:25;;;;;;;37.27;34.13;;;12.90;99.90;;;;;;4894861;29;20498;-73
2021/09/01 01:20:52;;;;;;;38.33;35.13;;;12.80;99.90;;;;;;4895050;29;20463;-73
2021/09/01 01:23:21;;;;;;;37.80;34.40;;;12.80;99.90;;;;;;4894952;29;20461;-72
2021/09/01 01:25:49;;;;;;;35.60;32.60;;;12.70;99.90;;;;;;4894793;29;20463;-72
2021/09/01 01:28:16;;;;;;;35.63;32.80;;;12.70;99.90;;;;;;4895324;29;20459;-72
2021/09/01 01:30:43;;;;;;;37.00;33.70;;;12.70;99.90;;;;;;4895230;29;20451;-73
2021/09/01 01:33:10;;;;;;;37.27;33.87;;;12.60;99.90;;;;;;4896811;29;20957;-74
2021/09/01 01:35:38;;;;;;;35.87;32.97;;;12.60;99.90;;;;;;4898452;29;20454;-72
2021/09/01 01:38:07;;;;;;;38.07;34.67;;;12.60;99.90;;;;;;4898451;29;20495;-73
2021/09/01 01:40:35;;;;;;;39.33;35.43;;;12.60;99.90;;;;;;4898591;29;20459;-72
2021/09/01 01:43:05;;;;;;;38.87;35.27;;;12.60;99.90;;;;;;4898639;29;20462;-72
2021/09/01 01:45:34;;;;;;;39.77;36.27;;;12.60;99.90;;;;;;4898457;29;20463;-70
2021/09/01 01:48:01;;;;;;;37.90;34.60;;;12.60;99.90;;;;;;4898166;29;20836;-71
2021/09/01 01:50:29;;;;;;;38.90;35.50;;;12.50;99.90;;;;;;4898460;29;20454;-72
2021/09/01 01:52:56;;;;;;;38.10;34.50;;;12.60;99.90;;;;;;4898436;29;20489;-72
2021/09/01 01:55:23;;;;;;;39.60;36.10;;;12.60;99.90;;;;;;4897986;29;20463;-72
2021/09/01 01:57:50;;;;;;;37.57;34.30;;;12.60;99.90;;;;;;4897957;29;21045;-72
2021/09/01 02:00:18;;;;;;;38.17;34.40;;;12.70;99.90;;;;;;4898189;29;20466;-71
2021/09/01 02:02:45;;;;;;;38.37;34.77;;;12.70;99.90;;;;;;4898214;29;20467;-72
2021/09/01 02:05:12;;;;;;;40.70;37.07;;;12.70;99.90;;;;;;4898282;29;20466;-72
2021/09/01 02:07:40;;;;;;;42.87;38.67;;;12.80;99.90;;;;;;4897746;29;20466;-72
2021/09/01 02:10:09;;;;;;;43.60;39.37;;;12.80;99.90;;;;;;4897926;29;20466;-73
2021/09/01 02:12:36;;;;;;;44.43;40.10;;;12.80;99.90;;;;;;4898005;29;20481;-72
2021/09/01 02:15:04;;;;;;;43.77;39.57;;;12.70;99.90;;;;;;4898079;29;20451;-71
2021/09/01 02:17:33;;;;;;;43.10;38.80;;;12.70;99.90;;;;;;4897759;29;20458;-72
2021/09/01 02:20:00;;;;;;;44.07;39.60;;;12.70;99.90;;;;;;4897741;29;20758;-72
2021/09/01 02:22:27;;;;;;;44.43;39.93;;;12.60;99.90;;;;;;4897850;29;20613;-72
2021/09/01 02:24:54;;;;;;;45.07;40.47;;;12.60;99.90;;;;;;4897901;29;20454;-72
2021/09/01 02:27:20;;;;;;;43.87;39.70;;;12.70;99.90;;;;;;4897616;29;20467;-71
2021/09/01 02:29:47;;;;;;;43.90;39.53;;;12.70;99.90;;;;;;4897236;29;20466;-73
2021/09/01 02:32:15;;;;;;;45.60;41.00;;;12.70;99.90;;;;;;4897766;29;20470;-71
2021/09/01 02:34:43;;;;;;;44.83;40.73;;;12.70;99.90;;;;;;4897715;29;20458;-72
2021/09/01 02:37:09;;;;;;;43.17;38.93;;;12.80;99.90;;;;;;4897806;29;20462;-71
2021/09/01 02:39:36;;;;;;;42.43;38.47;;;12.80;99.90;;;;;;4897328;29;20491;-72
2021/09/01 02:42:03;;;;;;;41.83;38.27;;;12.90;99.90;;;;;;4897229;29;20470;-72
2021/09/01 02:44:30;;;;;;;41.17;37.17;;;12.80;99.90;;;;;;4897113;29;20463;-71
2021/09/01 02:46:57;;;;;;;45.20;40.47;;;12.80;99.90;;;;;;4897220;29;20478;-72
2021/09/01 02:49:24;;;;;;;43.80;40.00;;;12.80;99.90;;;;;;4897408;29;20451;-71
2021/09/01 02:51:52;;;;;;;43.07;39.03;;;12.90;99.90;;;;;;4897284;29;20459;-72
2021/09/01 02:54:18;;;;;;;45.87;41.47;;;12.90;99.90;;;;;;4897268;29;20630;-72
2021/09/01 02:56:46;;;;;;;45.70;41.20;;;13.00;99.90;;;;;;4896767;29;20451;-70
2021/09/01 02:59:13;;;;;;;43.53;39.07;;;12.90;99.90;;;;;;4897166;29;20513;-71
2021/09/01 03:01:39;;;;;;;43.93;39.77;;;12.90;99.90;;;;;;4897164;29;20961;-71
2021/09/01 03:04:06;;;;;;;43.33;39.23;;;12.90;99.90;;;;;;4897096;29;20463;-72
2021/09/01 03:06:33;;;;;;;43.33;39.57;;;12.90;99.90;;;;;;4896919;29;20481;-72
2021/09/01 03:09:01;;;;;;;44.67;40.13;;;12.90;99.90;;;;;;4896709;29;20459;-72
2021/09/01 03:11:28;;;;;;;46.50;42.03;;;13.00;99.90;;;;;;4897013;29;20463;-72
2021/09/01 03:13:54;;;;;;;50.17;44.77;;;12.90;99.90;;;;;;4897229;29;20459;-72
2021/09/01 03:16:21;;;;;;;44.43;40.33;;;13.00;99.90;;;;;;4896731;29;20452;-72
2021/09/01 03:18:48;;;;;;;49.60;44.53;;;13.00;99.90;;;;;;4896692;29;20925;-72
2021/09/01 03:21:14;;;;;;;47.63;43.20;;;13.00;99.90;;;;;;4896629;29;20474;-72
2021/09/01 03:23:41;;;;;;;47.37;42.70;;;12.90;99.90;;;;;;4896845;29;20455;-73
2021/09/01 03:26:09;;;;;;;46.30;42.03;;;13.00;99.90;;;;;;4896521;29;20459;-73
2021/09/01 03:28:36;;;;;;;45.20;41.10;;;13.00;99.90;;;;;;4896567;29;20454;-72
2021/09/01 03:31:03;;;;;;;46.03;41.23;;;13.00;99.90;;;;;;4896220;29;20463;-72
2021/09/01 03:33:29;;;;;;;46.00;41.70;;;12.90;99.90;;;;;;4896460;29;20463;-73
2021/09/01 03:35:56;;;;;;;44.67;40.40;;;12.90;99.90;;;;;;4896649;29;20494;-73
2021/09/01 03:38:23;;;;;;;53.10;41.43;;;12.80;99.90;;;;;;4896327;29;20498;-72
2021/09/01 03:40:49;;;;;;;47.17;40.67;;;12.80;99.90;;;;;;4896293;29;20451;-73
2021/09/01 03:43:17;;;;;;;48.40;39.80;;;12.80;99.90;;;;;;4896038;29;20455;-73
2021/09/01 03:45:44;;;;;;;58.13;40.17;;;12.80;99.90;;;;;;4896495;29;20976;-72
2021/09/01 03:48:11;;;;;;;44.53;38.50;;;12.80;99.90;;;;;;4896238;29;20490;-73
2021/09/01 03:50:37;;;;;;;44.23;39.77;;;12.80;99.90;;;;;;4896288;29;20459;-73
2021/09/01 03:53:04;;;;;;;44.97;40.30;;;12.80;99.90;;;;;;4896019;29;20828;-73
2021/09/01 03:55:31;;;;;;;50.17;41.60;;;12.80;99.90;;;;;;4895603;29;20455;-73
2021/09/01 03:57:57;;;;;;;43.63;39.37;;;12.70;99.90;;;;;;4895915;29;20463;-73
2021/09/01 04:00:26;;;;;;;45.50;40.93;;;12.80;99.90;;;;;;4896120;29;20495;-73
2021/09/01 04:02:52;;;;;;;48.83;38.67;;;12.70;99.90;;;;;;4895876;29;20481;-73
2021/09/01 04:05:19;;;;;;;43.73;40.03;;;12.60;99.90;;;;;;4895896;29;20458;-72
2021/09/01 04:07:46;;;;;;;42.50;38.70;;;12.70;99.90;;;;;;4895700;29;20961;-73
2021/09/01 04:10:12;;;;;;;44.33;40.27;;;12.70;99.90;;;;;;4895981;29;20447;-72
2021/09/01 04:12:39;;;;;;;39.87;36.50;;;12.70;99.90;;;;;;4895529;29;20451;-71
2021/09/01 04:15:07;;;;;;;42.27;38.20;;;12.80;99.90;;;;;;4895527;29;20455;-72
2021/09/01 04:17:35;;;;;;;40.67;37.20;;;12.70;99.90;;;;;;4895495;29;20463;-72
2021/09/01 04:20:01;;;;;;;38.10;34.73;;;12.70;99.90;;;;;;4895563;29;20498;-72
2021/09/01 04:22:28;;;;;;;41.77;37.67;;;12.70;99.90;;;;;;4895747;29;20451;-72
2021/09/01 04:24:55;;;;;;;40.17;36.70;;;12.60;99.90;;;;;;4895790;29;20451;-72
2021/09/01 04:27:22;;;;;;;40.80;37.03;;;12.60;99.90;;;;;;4895328;29;20462;-73
2021/09/01 04:29:48;;;;;;;40.90;37.40;;;12.60;99.90;;;;;;4895479;29;20452;-73
2021/09/01 04:32:15;;;;;;;42.20;37.67;;;12.60;99.90;;;;;;4895559;29;20474;-73
2021/09/01 04:34:43;;;;;;;39.97;36.43;;;12.60;99.90;;;;;;4895602;29;20456;-72
2021/09/01 04:37:10;;;;;;;40.30;37.00;;;12.60;99.90;;;;;;4895834;29;20447;-72
2021/09/01 04:39:37;;;;;;;40.57;36.90;;;12.60;99.90;;;;;;4895115;29;20855;-72
2021/09/01 04:42:04;;;;;;;41.77;37.93;;;12.60;99.90;;;;;;4895529;29;20450;-73
2021/09/01 04:44:31;;;;;;;41.50;37.47;;;12.50;99.90;;;;;;4895293;29;20466;-73
2021/09/01 04:46:57;;;;;;;40.27;35.90;;;12.50;99.90;;;;;;4895344;29;20485;-72
2021/09/01 04:49:24;;;;;;;38.37;34.77;;;12.50;99.90;;;;;;4895311;29;20440;-73
2021/09/01 04:51:52;;;;;;;38.70;35.00;;;12.60;99.90;;;;;;4895340;29;20478;-73
2021/09/01 04:54:19;;;;;;;39.90;36.07;;;12.60;99.90;;;;;;4895026;29;20455;-73
2021/09/01 04:56:46;;;;;;;37.90;33.80;;;12.50;99.90;;;;;;4895348;29;20470;-72
2021/09/01 04:59:12;;;;;;;44.30;35.03;;;12.50;99.90;;;;;;4895458;29;20494;-71
2021/09/01 05:01:39;;;;;;;38.47;34.50;;;12.40;99.90;;;;;;4895375;29;20466;-72
2021/09/01 05:04:06;;;;;;;40.07;35.73;;;12.40;99.90;;;;;;4895352;29;20458;-74
2021/09/01 05:06:33;;;;;;;40.90;36.90;;;12.40;99.90;;;;;;4895192;29;20980;-72
2021/09/01 05:09:01;;;;;;;41.13;37.10;;;12.40;99.90;;;;;;4898077;29;21083;-72
2021/09/01 05:11:28;;;;;;;40.90;36.90;;;12.50;99.90;;;;;;4899088;29;20532;-73
2021/09/01 05:13:54;;;;;;;41.93;37.63;;;12.50;99.90;;;;;;4899308;29;20819;-73
2021/09/01 05:16:21;;;;;;;40.10;36.00;;;12.40;99.90;;;;;;4899186;29;20466;-73
2021/09/01 05:18:48;;;;;;;57.43;38.83;;;12.50;99.90;;;;;;4897514;29;20451;-73
2021/09/01 05:21:15;;;;;;;40.10;35.63;;;12.50;99.90;;;;;;4898956;29;20958;-73
2021/09/01 05:23:43;;;;;;;43.73;36.17;;;12.60;99.90;;;;;;4899306;29;20534;-73
2021/09/01 05:26:12;;;;;;;38.73;34.53;;;12.60;99.90;;;;;;4899100;29;20466;-74
2021/09/01 05:28:39;;;;;;;40.80;36.60;;;12.70;99.90;;;;;;4899196;29;20470;-72
2021/09/01 05:31:08;;;;;;;41.63;37.33;;;12.70;99.90;;;;;;4898786;29;20466;-72
2021/09/01 05:33:36;;;;;;;41.80;36.47;;;12.80;99.90;;;;;;4898949;29;20823;-72
2021/09/01 05:36:05;;;;;;;38.70;35.10;;;12.80;99.90;;;;;;4898762;29;20462;-72
2021/09/01 05:38:33;;;;;;;41.07;36.87;;;12.80;99.90;;;;;;4898893;29;20462;-72
2021/09/01 05:41:01;;;;;;;39.53;35.40;;;12.90;99.90;;;;;;4898427;29;20555;-72
2021/09/01 05:43:29;;;;;;;36.83;33.93;;;13.00;99.90;;;;;;4898956;29;20462;-72
2021/09/01 05:45:56;;;;;;;36.17;32.87;;;13.10;99.90;;;;;;4898651;29;20479;-71
2021/09/01 05:48:24;;;;;;;37.50;34.30;;;13.20;99.90;;;;;;4898405;29;20502;-72
2021/09/01 05:50:54;;;;;;;38.13;34.67;;;13.20;99.90;;;;;;4898576;29;20459;-72
2021/09/01 05:53:20;;;;;;;36.53;33.17;;;13.20;99.90;;;;;;4898342;29;20471;-72
2021/09/01 05:55:50;;;;;;;36.27;32.97;;;13.30;99.90;;;;;;4898237;29;20459;-72
2021/09/01 05:58:19;;;;;;;41.47;34.37;;;13.30;99.90;;;;;;4898283;29;20550;-72
2021/09/01 06:00:54;;;;;;;38.43;34.40;;;13.30;99.90;;;;;;4898089;29;20501;-72
2021/09/01 06:03:25;;;;;;;38.67;34.80;;;13.40;99.90;;;;;;4898164;29;20455;-72
2021/09/01 06:05:54;;;;;;;45.73;34.70;;;13.60;99.90;;;;;;4898446;29;20507;-72
2021/09/01 06:08:24;;;;;;;38.00;34.17;;;13.50;99.90;;;;;;4898137;29;20977;-73
2021/09/01 06:10:53;;;;;;;34.93;31.70;;;13.50;99.90;;;;;;4898196;29;20491;-73
2021/09/01 06:13:20;;;;;;;36.97;33.53;;;13.60;99.90;;;;;;4898188;29;20455;-72
2021/09/01 06:15:49;;;;;;;47.00;35.50;;;13.60;99.90;;;;;;4897873;29;20486;-73
2021/09/01 06:18:16;;;;;;;42.47;36.20;;;13.60;99.90;;;;;;4897815;29;20898;-72
2021/09/01 06:20:43;;;;;;;49.80;39.40;;;13.70;99.90;;;;;;4898014;29;20498;-72
2021/09/01 06:23:10;;;;;;;44.50;39.67;;;13.60;99.90;;;;;;4898063;29;20464;-72
2021/09/01 06:25:37;;;;;;;45.63;41.17;;;13.70;99.90;;;;;;4897564;29;20459;-71
2021/09/01 06:28:05;;;;;;;35.80;32.53;;;13.90;99.90;;;;;;4897837;29;20455;-72
2021/09/01 06:30:32;;;;;;;37.67;34.10;;;14.00;99.90;;;;;;4897894;29;20455;-72
2021/09/01 06:33:00;;;;;;;36.13;32.67;;;14.00;99.90;;;;;;4897761;29;20949;-71
2021/09/01 06:35:27;;;;;;;33.97;30.53;;;13.90;99.90;;;;;;4897945;29;20459;-71
2021/09/01 06:37:54;;;;;;;38.30;34.67;;;14.10;99.90;;;;;;4897496;29;20459;-72
2021/09/01 06:40:22;;;;;;;36.73;33.00;;;14.00;99.90;;;;;;4897564;29;20865;-71
2021/09/01 06:42:48;;;;;;;36.00;32.23;;;14.00;99.90;;;;;;4897609;29;20455;-70
2021/09/01 06:45:15;;;;;;;32.73;29.80;;;13.90;99.90;;;;;;4897475;29;20459;-71
2021/09/01 06:47:44;;;;;;;33.67;30.53;;;13.90;99.90;;;;;;4897247;29;20495;-71
2021/09/01 06:50:14;;;;;;;36.20;32.67;;;14.20;99.90;;;;;;4897328;29;20455;-72
2021/09/01 06:52:42;;;;;;;37.27;33.20;;;14.30;99.90;;;;;;4897273;29;20468;-71
2021/09/01 06:55:10;;;;;;;35.43;32.20;;;14.30;99.90;;;;;;4897307;29;20478;-72
2021/09/01 06:57:37;;;;;;;39.57;32.97;;;14.30;99.90;;;;;;4897045;29;20827;-71
2021/09/01 07:00:06;;;;;;;36.17;32.90;;;14.50;99.90;;;;;;4896889;29;20514;-71
2021/09/01 07:02:33;;;;;;;33.63;30.53;;;14.70;99.90;;;;;;4897069;29;20451;-71
2021/09/01 07:04:59;;;;;;;43.93;39.53;;;14.90;99.90;;;;;;4897370;29;20462;-73
2021/09/01 07:07:27;;;;;;;39.10;35.47;;;15.00;99.90;;;;;;4897376;29;20462;-72
2021/09/01 07:09:55;;;;;;;36.57;33.13;;;15.10;99.90;;;;;;4897040;29;20451;-72
2021/09/01 07:12:22;;;;;;;36.60;33.47;;;15.20;99.90;;;;;;4896911;29;20459;-72
2021/09/01 07:14:49;;;;;;;34.13;31.37;;;15.10;99.90;;;;;;4896963;29;20551;-72
2021/09/01 07:17:15;;;;;;;36.73;33.37;;;15.20;99.90;;;;;;4896762;29;20452;-72
2021/09/01 07:19:42;;;;;;;34.27;31.13;;;15.40;99.90;;;;;;4896606;29;20494;-72
2021/09/01 07:22:09;;;;;;;29.60;27.10;;;15.60;99.90;;;;;;4896848;29;20799;-71
2021/09/01 07:24:37;;;;;;;38.20;34.70;;;15.40;99.90;;;;;;4896548;29;20452;-72
2021/09/01 07:27:04;;;;;;;35.70;32.53;;;15.40;99.90;;;;;;4896863;29;20467;-72
2021/09/01 07:29:31;;;;;;;31.20;28.80;;;15.60;99.90;;;;;;4896811;29;20813;-71
2021/09/01 07:31:58;;;;;;;29.50;27.10;;;15.60;99.90;;;;;;4896237;29;20463;-73
2021/09/01 07:34:25;;;;;;;37.43;33.97;;;15.90;99.90;;;;;;4896784;29;20447;-74
2021/09/01 07:36:51;;;;;;;29.27;26.70;;;16.20;99.90;;;;;;4896591;29;20860;-74
2021/09/01 07:39:18;;;;;;;28.27;25.97;;;16.30;99.90;;;;;;4896076;29;20459;-74
2021/09/01 07:41:46;;;;;;;26.00;24.00;;;16.60;99.90;;;;;;4895319;29;20470;-74
2021/09/01 07:44:13;;;;;;;27.37;25.27;;;16.40;99.90;;;;;;4895631;29;20455;-74
2021/09/01 07:46:40;;;;;;;28.77;26.20;;;16.30;99.90;;;;;;4895576;29;20494;-74
2021/09/01 07:49:07;;;;;;;27.07;25.10;;;16.40;99.90;;;;;;4895082;29;20491;-74
2021/09/01 07:51:33;;;;;;;24.80;22.97;;;16.80;99.90;;;;;;4895282;29;20444;-73
2021/09/01 07:54:00;;;;;;;28.70;26.50;;;16.60;99.90;;;;;;4895135;29;20888;-73
2021/09/01 07:56:27;;;;;;;26.73;24.63;;;16.70;99.90;;;;;;4895426;29;20447;-73
2021/09/01 07:58:55;;;;;;;27.53;25.43;;;16.80;99.90;;;;;;4895165;29;20811;-72
2021/09/01 08:01:22;;;;;;;28.23;26.03;;;17.20;99.90;;;;;;4894798;29;20487;-72
2021/09/01 08:03:48;;;;;;;28.90;26.70;;;17.40;99.90;;;;;;4894764;29;20808;-72
2021/09/01 08:06:15;;;;;;;28.70;26.50;;;17.60;99.90;;;;;;4893504;29;20451;-72
2021/09/01 08:08:42;;;;;;;30.00;27.70;;;17.80;99.90;;;;;;4895720;29;20500;-72
2021/09/01 08:11:08;;;;;;;29.53;27.30;;;18.30;99.90;;;;;;4895373;29;20455;-72
2021/09/01 08:13:35;;;;;;;29.87;27.37;;;18.30;99.90;;;;;;4895589;29;20532;-71
2021/09/01 08:16:03;;;;;;;29.90;27.30;;;18.40;99.90;;;;;;4895278;29;20462;-73
2021/09/01 08:18:30;;;;;;;28.67;26.67;;;18.80;99.90;;;;;;4895392;29;20447;-72
2021/09/01 08:20:57;;;;;;;29.50;27.20;;;19.00;99.90;;;;;;4895704;29;20498;-72
2021/09/01 08:23:23;;;;;;;27.57;25.30;;;19.00;99.90;;;;;;4895731;29;20455;-72
2021/09/01 08:25:50;;;;;;;29.60;26.90;;;18.80;99.90;;;;;;4895273;29;20459;-72
2021/09/01 08:28:17;;;;;;;30.20;27.73;;;19.10;99.90;;;;;;4893867;29;20821;-71
2021/09/01 08:30:44;;;;;;;29.83;27.43;;;18.70;99.90;;;;;;4895553;29;20467;-72
2021/09/01 08:33:12;;;;;;;29.40;27.17;;;18.80;99.90;;;;;;4896053;29;20462;-72
2021/09/01 08:35:38;;;;;;;28.37;25.77;;;19.10;99.90;;;;;;4895982;29;20467;-72
2021/09/01 08:38:05;;;;;;;28.37;26.20;;;19.20;99.90;;;;;;4895786;29;20451;-72
2021/09/01 08:40:32;;;;;;;29.70;27.60;;;19.70;99.90;;;;;;4895564;29;20487;-73
2021/09/01 08:42:59;;;;;;;29.47;27.03;;;19.70;99.90;;;;;;4895831;29;20463;-73
2021/09/01 08:45:26;;;;;;;28.93;26.30;;;20.20;99.90;;;;;;4895785;29;20868;-73
2021/09/01 08:47:55;;;;;;;30.87;28.47;;;20.70;99.90;;;;;;4895635;29;20498;-71
2021/09/01 08:50:27;;;;;;;29.97;27.80;;;20.80;99.90;;;;;;4895651;29;20458;-72
2021/09/01 08:52:53;;;;;;;29.77;27.67;;;21.10;99.90;;;;;;4894178;29;20459;-73
2021/09/01 08:55:20;;;;;;;28.03;25.87;;;21.40;99.90;;;;;;4905400;29;20454;-72
2021/09/01 08:57:47;;;;;;;30.77;28.33;;;21.60;99.90;;;;;;4914268;29;20462;-72
2021/09/01 09:00:15;;;;;;;30.00;27.73;;;21.80;99.90;;;;;;4914224;29;21027;-70
2021/09/01 09:02:53;;;;;;;29.73;27.43;;;22.50;99.90;;;;;;4914421;29;20458;-71
2021/09/01 09:05:31;;;;;;;29.50;27.50;;;22.20;99.90;;;;;;4914379;29;21249;-74
2021/09/01 09:07:58;;;;;;;27.93;26.10;;;22.80;99.90;;;;;;4914453;29;20521;-73
2021/09/01 09:10:26;;;;;;;27.63;25.63;;;23.50;99.90;;;;;;4914511;29;20790;-72
2021/09/01 09:12:56;;;;;;;29.17;26.87;;;23.30;99.90;;;;;;4914501;29;20454;-73
2021/09/01 09:15:23;;;;;;;28.73;26.83;;;22.80;99.90;;;;;;4914241;29;20470;-73
2021/09/01 09:17:50;;;;;;;28.00;26.00;;;23.00;99.90;;;;;;4914338;29;20647;-72
2021/09/01 09:20:24;;;;;;;28.20;26.30;;;23.70;99.90;;;;;;4914088;29;20498;-74
2021/09/01 09:22:52;;;;;;;28.43;26.40;;;24.50;99.90;;;;;;4914359;29;20576;-73
2021/09/01 09:25:21;;;;;;;27.43;25.70;;;25.50;99.90;;;;;;4914130;29;20549;-73
2021/09/01 09:27:49;;;;;;;26.07;24.47;;;26.90;97.40;;;;;;4914271;29;20557;-73
2021/09/01 09:30:32;;;;;;;28.33;26.60;;;27.70;96.00;;;;;;4914188;29;20451;-72
2021/09/01 09:33:01;;;;;;;28.47;26.60;;;27.90;94.70;;;;;;4914198;29;20465;-72
2021/09/01 09:35:29;;;;;;;27.30;25.50;;;28.70;93.20;;;;;;4914546;29;20447;-73
2021/09/01 09:38:06;;;;;;;27.90;26.20;;;28.50;93.30;;;;;;4912325;29;20462;-72
2021/09/01 09:40:33;;;;;;;26.93;25.10;;;29.40;92.20;;;;;;4914160;29;20529;-71
2021/09/01 09:43:13;;;;;;;26.20;24.60;;;30.00;91.00;;;;;;4914389;29;20461;-71
2021/09/01 09:45:41;;;;;;;27.93;26.17;;;30.90;88.40;;;;;;4914419;29;20454;-72
2021/09/01 09:48:08;;;;;;;25.43;24.03;;;30.60;87.30;;;;;;4914155;29;20501;-74
2021/09/01 09:50:35;;;;;;;25.43;23.77;;;30.30;87.70;;;;;;4914297;29;20450;-72
2021/09/01 09:53:03;;;;;;;25.43;24.03;;;29.80;89.60;;;;;;4914342;29;20462;-73
2021/09/01 09:55:30;;;;;;;26.10;24.50;;;30.10;88.70;;;;;;4917540;29;20459;-72
2021/09/01 09:58:00;;;;;;;25.57;24.10;;;30.40;87.40;;;;;;4917747;29;20458;-72
2021/09/01 10:00:28;;;;;;;23.77;22.47;;;29.90;88.20;;;;;;4917773;29;20581;-72
2021/09/01 10:02:54;;;;;;;25.30;23.77;;;29.40;89.60;;;;;;4917696;29;20446;-73
2021/09/01 10:05:24;;;;;;;24.17;22.67;;;29.50;90.00;;;;;;4917544;29;20455;-72
2021/09/01 10:07:51;;;;;;;24.67;23.37;;;30.10;88.60;;;;;;4917442;29;20450;-74
2021/09/01 10:10:19;;;;;;;24.27;22.70;;;30.40;87.40;;;;;;4917305;29;20465;-74
2021/09/01 10:12:48;;;;;;;24.50;23.20;;;30.20;88.00;;;;;;4917495;29;20459;-74
2021/09/01 10:15:20;;;;;;;24.77;23.17;;;31.40;84.20;;;;;;4917377;29;20465;-74
2021/09/01 10:17:50;;;;;;;25.67;24.20;;;31.70;82.00;;;;;;4917355;29;20458;-74
2021/09/01 10:20:21;;;;;;;22.07;20.90;;;31.50;81.30;;;;;;4917037;29;20455;-74
2021/09/01 10:23:00;;;;;;;21.03;20.00;;;31.20;81.80;;;;;;4917466;29;20839;-72
2021/09/01 10:25:36;;;;;;;20.90;19.90;;;31.90;80.20;;;;;;4917234;29;20458;-73
2021/09/01 10:28:34;;;;;;;20.40;19.40;;;32.30;75.60;;;;;;4916918;29;20579;-73
2021/09/01 10:31:27;;;;;;;20.43;19.43;;;32.00;75.70;;;;;;4916863;29;20457;-72
2021/09/01 10:33:55;;;;;;;20.73;19.43;;;32.40;74.70;;;;;;4917153;29;20473;-72
2021/09/01 10:36:48;;;;;;;20.53;19.53;;;32.80;71.80;;;;;;4917134;29;20678;-71
2021/09/01 10:39:30;;;;;;;21.47;20.37;;;33.30;67.60;;;;;;4916740;29;20450;-71
2021/09/01 10:41:59;;;;;;;19.40;18.50;;;31.80;69.50;;;;;;4913624;29;20509;-73
2021/09/01 10:44:47;;;;;;;19.30;18.40;;;31.70;71.60;;;;;;4916994;29;20458;-72
2021/09/01 10:47:13;;;;;;;18.83;18.03;;;31.80;66.20;;;;;;4916618;29;20486;-72
2021/09/01 10:50:02;;;;;;;18.77;17.87;;;31.20;64.30;;;;;;4916833;29;20458;-72
2021/09/01 10:52:56;;;;;;;19.40;18.40;;;30.70;65.10;;;;;;4916905;29;20446;-72
2021/09/01 10:55:22;;;;;;;18.20;17.47;;;30.50;66.50;;;;;;4915549;29;20481;-71
2021/09/01 10:58:15;;;;;;;18.50;17.60;;;31.60;64.10;;;;;;4916519;29;20458;-70
2021/09/01 11:00:43;;;;;;;17.57;16.70;;;31.20;64.20;;;;;;4916566;29;20577;-71
2021/09/01 11:03:09;;;;;;;17.93;17.13;;;30.50;64.30;;;;;;4916628;29;20457;-70
2021/09/01 11:05:36;;;;;;;17.20;16.40;;;30.40;67.50;;;;;;4915255;29;20474;-71
2021/09/01 11:08:03;;;;;;;17.90;17.10;;;30.30;69.20;;;;;;4916317;29;20980;-70
2021/09/01 11:10:30;;;;;;;18.80;17.90;;;29.70;71.70;;;;;;4915107;29;20450;-71
2021/09/01 11:13:00;;;;;;;18.97;18.07;;;29.30;71.40;;;;;;4906338;29;20450;-71
2021/09/01 11:15:27;;;;;;;19.57;18.67;;;28.50;74.90;;;;;;4905646;29;20461;-71
2021/09/01 11:18:05;;;;;;;18.50;17.57;;;28.10;76.30;;;;;;4909712;29;20457;-71
2021/09/01 11:20:32;;;;;;;19.83;18.40;;;28.50;74.60;;;;;;4897933;29;20490;-74
2021/09/01 11:23:01;;;;;;;18.83;17.93;;;28.20;77.30;;;;;;4898414;29;20447;-71
2021/09/01 11:25:29;;;;;;;17.30;16.50;;;27.30;77.80;;;;;;4905707;29;20522;-71
2021/09/01 11:28:02;;;;;;;17.67;16.90;;;26.50;80.70;;;;;;4905431;29;20444;-72
2021/09/01 11:30:32;;;;;;;18.60;17.60;;;26.50;82.70;;;;;;4901924;29;20804;-72
2021/09/01 11:32:59;;;;;;;18.13;17.30;;;27.70;81.50;;;;;;4905089;29;20451;-71
2021/09/01 11:35:29;;;;;;;18.40;17.40;;;28.80;75.20;;;;;;4906090;29;20461;-72
2021/09/01 11:37:56;;;;;;;18.70;17.90;;;28.80;74.70;;;;;;4905239;29;20447;-71
2021/09/01 11:40:31;;;;;;;16.87;16.00;;;28.00;76.30;;;;;;4903870;29;20455;-71
2021/09/01 11:42:59;;;;;;;18.27;17.30;;;28.60;75.20;;;;;;4904519;29;20517;-71
2021/09/01 11:45:27;;;;;;;18.40;17.50;;;28.30;76.80;;;;;;4905683;29;20446;-71
2021/09/01 11:47:59;;;;;;;17.97;17.10;;;27.60;77.40;;;;;;4904746;29;20479;-71
2021/09/01 11:50:26;;;;;;;16.57;15.77;;;27.20;75.10;;;;;;4903964;29;20455;-72
2021/09/01 11:52:54;;;;;;;16.90;16.10;;;26.60;73.80;;;;;;4904771;29;20439;-72
2021/09/01 11:55:23;;;;;;;17.40;16.60;;;26.70;74.80;;;;;;4905328;29;20490;-72
2021/09/01 11:57:50;;;;;;;16.70;16.00;;;26.40;74.10;;;;;;4904240;29;20518;-71
2021/09/01 12:00:18;;;;;;;17.50;16.70;;;26.30;76.00;;;;;;4904338;29;20486;-71
2021/09/01 12:02:50;;;;;;;19.23;18.23;;;26.20;75.40;;;;;;4905513;29;20828;-71
2021/09/01 12:05:29;;;;;;;17.27;16.50;;;26.30;76.60;;;;;;4905068;29;20459;-69
2021/09/01 12:07:55;;;;;;;17.90;17.13;;;27.10;73.40;;;;;;4904602;29;20510;-70
2021/09/01 12:10:22;;;;;;;18.63;17.63;;;27.40;72.00;;;;;;4903190;29;20463;-72
2021/09/01 12:13:00;;;;;;;17.33;16.63;;;27.70;69.30;;;;;;4904791;29;20987;-71
2021/09/01 12:15:28;;;;;;;16.70;15.90;;;27.80;68.50;;;;;;4905520;29;20443;-72
2021/09/01 12:18:03;;;;;;;17.10;16.30;;;27.50;67.80;;;;;;4904251;29;20447;-71
2021/09/01 12:20:33;;;;;;;16.63;15.63;;;27.70;69.70;;;;;;4903511;29;20822;-72
2021/09/01 12:23:00;;;;;;;16.67;15.87;;;27.90;67.90;;;;;;4903551;29;20518;-71
2021/09/01 12:25:28;;;;;;;15.70;14.90;;;28.60;68.10;;;;;;4905128;29;20451;-72
2021/09/01 12:28:03;;;;;;;17.60;16.80;;;28.70;65.40;;;;;;4904042;29;20456;-72
2021/09/01 12:30:35;;;;;;;16.23;15.53;;;28.70;65.40;;;;;;4900945;29;20455;-71
2021/09/01 12:33:04;;;;;;;16.20;15.40;;;29.20;65.00;;;;;;4903170;29;20453;-72
2021/09/01 12:35:33;;;;;;;17.90;17.07;;;29.40;63.50;;;;;;4900892;29;20448;-72